createdAt,value
2018-07-16T00:00:34.374Z,63.92
2018-07-16T00:01:34.341Z,64.21
2018-07-16T00:02:34.307Z,64.15
2018-07-16T00:03:34.279Z,64.21
2018-07-16T00:04:34.249Z,63.76
2018-07-16T00:05:34.218Z,64.43
2018-07-16T00:06:34.189Z,65.01
2018-07-16T00:07:34.157Z,64.05
2018-07-16T00:08:34.124Z,63.67
2018-07-16T00:09:34.101Z,63.95
2018-07-16T00:10:34.060Z,63.76
2018-07-16T00:11:34.031Z,63.82
2018-07-16T00:12:34.001Z,63.85
2018-07-16T00:13:33.972Z,65.08
2018-07-16T00:14:33.937Z,64.98
2018-07-16T00:15:33.903Z,65.11
2018-07-16T00:16:33.876Z,64.69
2018-07-16T00:17:33.846Z,64.79
2018-07-16T00:18:33.813Z,65.37
2018-07-16T00:19:33.782Z,64.79
2018-07-16T00:20:33.751Z,65.69
2018-07-16T00:21:33.716Z,65.37
2018-07-16T00:22:33.689Z,65.85
2018-07-16T00:23:33.654Z,64.98
2018-07-16T00:24:33.624Z,65.30
2018-07-16T00:25:33.599Z,65.46
2018-07-16T00:26:33.569Z,66.04
2018-07-16T00:27:33.534Z,66.24
2018-07-16T00:28:33.499Z,65.85
2018-07-16T00:29:33.464Z,66.91
2018-07-16T00:30:33.439Z,66.71
2018-07-16T00:31:33.421Z,66.91
2018-07-16T00:32:33.375Z,67.19
2018-07-16T00:33:33.339Z,67.58
2018-07-16T00:34:33.308Z,68.26
2018-07-16T00:35:33.278Z,68.64
2018-07-16T00:36:33.258Z,68.90
2018-07-16T00:37:33.218Z,68.41
2018-07-16T00:38:33.186Z,69.57
2018-07-16T00:39:33.154Z,69.76
2018-07-16T00:40:33.124Z,69.47
2018-07-16T00:41:33.088Z,70.05
2018-07-16T00:42:33.056Z,69.18
2018-07-16T00:43:33.026Z,68.99
2018-07-16T00:44:32.997Z,68.60
2018-07-16T00:45:32.968Z,68.41
2018-07-16T00:46:32.929Z,68.51
2018-07-16T00:47:32.899Z,68.41
2018-07-16T00:48:32.870Z,69.47
2018-07-16T00:49:32.840Z,69.38
2018-07-16T00:50:32.809Z,69.85
2018-07-16T00:51:32.775Z,69.85
2018-07-16T00:52:32.743Z,69.92
2018-07-16T00:53:32.708Z,69.85
2018-07-16T00:54:32.677Z,69.28
2018-07-16T00:55:32.647Z,70.05
2018-07-16T00:56:32.660Z,69.18
2018-07-16T00:57:32.653Z,69.47
2018-07-16T00:58:32.556Z,68.90
2018-07-16T00:59:32.522Z,69.06
2018-07-16T01:00:32.541Z,69.15
2018-07-16T01:01:32.455Z,69.24
2018-07-16T01:02:32.442Z,69.85
2018-07-16T01:03:32.397Z,69.38
2018-07-16T01:04:32.361Z,69.24
2018-07-16T01:05:32.331Z,69.28
2018-07-16T01:06:32.294Z,69.47
2018-07-16T01:07:32.266Z,69.28
2018-07-16T01:08:32.237Z,69.85
2018-07-16T01:09:32.208Z,70.34
2018-07-16T01:10:32.174Z,71.11
2018-07-16T01:11:32.144Z,71.88
2018-07-16T01:12:32.108Z,72.42
2018-07-16T01:13:32.074Z,72.71
2018-07-16T01:14:32.046Z,72.90
2018-07-16T01:15:32.015Z,73.00
2018-07-16T01:16:31.982Z,73.47
2018-07-16T01:17:31.953Z,73.63
2018-07-16T01:18:31.915Z,73.67
2018-07-16T01:19:31.885Z,73.83
2018-07-16T01:20:31.855Z,73.92
2018-07-16T01:21:31.836Z,73.73
2018-07-16T01:22:31.793Z,73.92
2018-07-16T01:23:31.759Z,74.21
2018-07-16T01:24:31.732Z,74.02
2018-07-16T01:25:31.691Z,73.92
2018-07-16T01:26:31.661Z,74.15
2018-07-16T01:27:31.630Z,73.96
2018-07-16T01:28:31.600Z,74.60
2018-07-16T01:29:31.573Z,74.30
2018-07-16T01:30:31.543Z,74.60
2018-07-16T01:31:31.505Z,74.69
2018-07-16T01:32:31.474Z,74.69
2018-07-16T01:33:31.439Z,74.88
2018-07-16T01:34:31.415Z,74.50
2018-07-16T01:35:31.380Z,74.54
2018-07-16T01:36:31.343Z,74.40
2018-07-16T01:37:31.313Z,74.60
2018-07-16T01:38:31.283Z,74.30
2018-07-16T01:39:31.245Z,74.40
2018-07-16T01:40:31.219Z,74.88
2018-07-16T01:41:31.188Z,75.07
2018-07-16T01:42:31.156Z,75.02
2018-07-16T01:43:31.139Z,74.79
2018-07-16T01:44:31.088Z,75.11
2018-07-16T01:45:31.053Z,75.11
2018-07-16T01:46:31.021Z,74.92
2018-07-16T01:47:30.991Z,74.82
2018-07-16T01:48:30.965Z,74.92
2018-07-16T01:49:30.932Z,75.46
2018-07-16T01:50:30.894Z,75.21
2018-07-16T01:51:30.865Z,75.21
2018-07-16T01:52:30.833Z,75.40
2018-07-16T01:53:30.806Z,76.07
2018-07-16T01:54:30.772Z,75.46
2018-07-16T01:55:30.738Z,75.75
2018-07-16T01:56:30.702Z,75.75
2018-07-16T01:57:30.670Z,76.32
2018-07-16T01:58:30.640Z,75.84
2018-07-16T01:59:30.607Z,76.52
2018-07-16T02:00:30.582Z,76.71
2018-07-16T02:01:30.549Z,77.58
2018-07-16T02:02:30.515Z,77.76
2018-07-16T02:03:30.481Z,77.86
2018-07-16T02:04:30.447Z,78.69
2018-07-16T02:05:30.412Z,78.59
2018-07-16T02:06:30.391Z,78.88
2018-07-16T02:07:30.354Z,79.07
2018-07-16T02:08:30.320Z,79.55
2018-07-16T02:09:30.284Z,79.50
2018-07-16T02:10:30.258Z,79.75
2018-07-16T02:11:30.223Z,79.84
2018-07-16T02:12:30.192Z,80.32
2018-07-16T02:13:30.167Z,80.51
2018-07-16T02:14:30.130Z,80.90
2018-07-16T02:15:30.097Z,80.80
2018-07-16T02:16:30.062Z,80.32
2018-07-16T02:17:30.029Z,81.38
2018-07-16T02:18:29.992Z,81.28
2018-07-16T02:19:29.974Z,81.09
2018-07-16T02:20:29.934Z,81.09
2018-07-16T02:21:29.903Z,81.48
2018-07-16T02:22:29.862Z,81.67
2018-07-16T02:23:29.834Z,81.86
2018-07-16T02:24:29.802Z,81.76
2018-07-16T02:25:29.772Z,81.57
2018-07-16T02:26:29.739Z,81.86
2018-07-16T02:27:29.705Z,81.86
2018-07-16T02:28:29.672Z,82.05
2018-07-16T02:29:29.636Z,82.05
2018-07-16T02:30:29.607Z,82.15
2018-07-16T02:31:29.577Z,82.24
2018-07-16T02:32:29.544Z,82.05
2018-07-16T02:33:29.512Z,82.15
2018-07-16T02:34:29.479Z,81.96
2018-07-16T02:35:29.445Z,82.24
2018-07-16T02:36:29.409Z,82.24
2018-07-16T02:37:29.376Z,82.24
2018-07-16T02:38:29.352Z,82.34
2018-07-16T02:39:29.318Z,83.20
2018-07-16T02:40:29.279Z,83.11
2018-07-16T02:41:29.246Z,83.54
2018-07-16T02:42:29.214Z,84.31
2018-07-16T02:43:29.183Z,84.03
2018-07-16T02:44:29.161Z,83.93
2018-07-16T02:45:29.121Z,84.89
2018-07-16T02:46:29.088Z,84.12
2018-07-16T02:47:29.053Z,84.12
2018-07-16T02:48:29.019Z,84.22
2018-07-16T02:49:28.984Z,84.12
2018-07-16T02:50:28.950Z,84.12
2018-07-16T02:51:28.921Z,84.80
2018-07-16T02:52:28.890Z,84.60
2018-07-16T02:53:28.860Z,84.41
2018-07-16T02:54:28.819Z,84.80
2018-07-16T02:55:28.791Z,84.89
2018-07-16T02:56:28.810Z,84.26
2018-07-16T02:57:28.727Z,84.26
2018-07-16T02:58:28.697Z,83.78
2018-07-16T02:59:28.662Z,83.87
2018-07-16T03:00:28.627Z,84.36
2018-07-16T03:01:28.601Z,83.59
2018-07-16T03:02:28.568Z,83.87
2018-07-16T03:03:28.528Z,83.97
2018-07-16T03:04:28.500Z,83.97
2018-07-16T03:05:28.466Z,83.97
2018-07-16T03:06:28.436Z,83.97
2018-07-16T03:07:28.409Z,84.17
2018-07-16T03:08:28.364Z,84.36
2018-07-16T03:09:28.332Z,84.36
2018-07-16T03:10:28.305Z,84.17
2018-07-16T03:11:28.270Z,84.26
2018-07-16T03:12:28.231Z,84.07
2018-07-16T03:13:28.202Z,84.60
2018-07-16T03:14:28.168Z,84.51
2018-07-16T03:15:28.139Z,84.12
2018-07-16T03:16:28.109Z,84.80
2018-07-16T03:17:28.121Z,85.18
2018-07-16T03:18:28.041Z,84.89
2018-07-16T03:19:28.038Z,85.18
2018-07-16T03:20:27.970Z,85.08
2018-07-16T03:21:27.945Z,85.37
2018-07-16T03:22:27.906Z,85.75
2018-07-16T03:23:27.876Z,85.71
2018-07-16T03:24:27.844Z,85.24
2018-07-16T03:25:27.811Z,85.71
2018-07-16T03:26:27.773Z,85.91
2018-07-16T03:27:27.737Z,85.91
2018-07-16T03:28:27.716Z,86.19
2018-07-16T03:29:27.681Z,86.38
2018-07-16T03:30:27.644Z,85.71
2018-07-16T03:31:27.615Z,86.00
2018-07-16T03:32:27.573Z,85.24
2018-07-16T03:33:27.543Z,86.10
2018-07-16T03:34:27.509Z,85.38
2018-07-16T03:35:27.474Z,85.52
2018-07-16T03:36:27.455Z,85.38
2018-07-16T03:37:27.414Z,85.58
2018-07-16T03:38:27.383Z,84.61
2018-07-16T03:39:27.349Z,84.71
2018-07-16T03:40:27.315Z,84.71
2018-07-16T03:41:27.282Z,83.94
2018-07-16T03:42:27.249Z,82.89
2018-07-16T03:43:27.218Z,82.70
2018-07-16T03:44:27.177Z,82.70
2018-07-16T03:45:27.146Z,82.27
2018-07-16T03:46:27.112Z,82.18
2018-07-16T03:47:27.077Z,81.41
2018-07-16T03:48:27.049Z,81.02
2018-07-16T03:49:27.014Z,79.68
2018-07-16T03:50:26.983Z,79.68
2018-07-16T03:51:26.949Z,77.76
2018-07-16T04:08:43.402Z,73.99
2018-07-16T04:09:43.332Z,73.51
2018-07-16T04:10:43.293Z,72.27
2018-07-16T04:11:43.266Z,72.27
2018-07-16T04:12:43.221Z,73.93
2018-07-16T04:13:43.238Z,76.04
2018-07-16T04:14:43.150Z,76.81
2018-07-16T04:15:43.106Z,66.77
2018-07-16T04:16:43.076Z,63.51
2018-07-16T04:17:43.038Z,63.92
2018-07-16T04:18:43.002Z,82.07
2018-07-16T04:19:42.972Z,72.56
2018-07-16T04:20:42.933Z,85.52
2018-07-16T04:21:42.895Z,74.68
2018-07-16T04:22:42.859Z,81.10
2018-07-16T04:23:42.832Z,80.63
2018-07-16T04:24:42.796Z,77.01
2018-07-16T04:25:42.758Z,86.87
2018-07-16T04:26:42.727Z,77.08
2018-07-16T04:27:42.688Z,80.76
2018-07-16T04:28:42.659Z,80.57
2018-07-16T04:29:42.621Z,80.76
2018-07-16T04:30:42.588Z,80.96
2018-07-16T04:31:42.559Z,82.34
2018-07-16T04:32:42.522Z,86.95
2018-07-16T04:33:42.491Z,87.72
2018-07-16T04:34:42.455Z,87.86
2018-07-16T04:35:42.416Z,88.63
2018-07-16T04:36:42.386Z,88.53
2018-07-16T04:37:42.358Z,88.34
2018-07-16T04:38:42.326Z,89.98
2018-07-16T04:39:42.288Z,89.88
2018-07-16T04:40:42.251Z,90.07
2018-07-16T04:41:42.218Z,89.01
2018-07-16T04:42:42.181Z,89.73
2018-07-16T04:43:42.154Z,89.73
2018-07-16T04:44:42.120Z,89.64
2018-07-16T04:45:42.088Z,89.44
2018-07-16T04:46:42.059Z,88.96
2018-07-16T04:47:42.018Z,88.87
2018-07-16T04:48:41.986Z,88.39
2018-07-16T04:49:41.955Z,88.39
2018-07-16T04:50:41.916Z,89.15
2018-07-16T04:51:41.889Z,88.87
2018-07-16T04:52:41.857Z,88.87
2018-07-16T04:53:41.819Z,89.35
2018-07-16T04:54:41.789Z,88.53
2018-07-16T04:55:41.759Z,87.96
2018-07-16T04:56:41.725Z,88.30
2018-07-16T04:57:41.694Z,87.92
2018-07-16T04:58:41.664Z,87.53
2018-07-16T04:59:41.622Z,87.62
2018-07-16T05:00:41.591Z,87.43
2018-07-16T05:01:41.559Z,85.80
2018-07-16T05:02:41.524Z,85.99
2018-07-16T05:03:41.499Z,86.99
2018-07-16T05:04:41.464Z,86.95
2018-07-16T05:05:41.431Z,85.94
2018-07-16T05:06:41.400Z,86.99
2018-07-16T05:07:41.362Z,86.99
2018-07-16T05:08:41.336Z,86.22
2018-07-16T05:09:41.301Z,87.38
2018-07-16T05:10:41.271Z,88.15
2018-07-16T05:11:41.384Z,87.19
2018-07-16T05:12:41.312Z,87.86
2018-07-16T05:13:41.173Z,87.57
2018-07-16T05:14:41.211Z,87.57
2018-07-16T05:15:41.272Z,89.92
2018-07-16T05:16:41.077Z,89.92
2018-07-16T05:17:41.415Z,89.92
2018-07-16T05:18:41.013Z,90.06
2018-07-16T05:19:40.976Z,90.06
2018-07-16T05:20:40.951Z,89.01
2018-07-16T05:21:40.912Z,89.01
2018-07-16T05:22:40.878Z,89.20
2018-07-16T05:23:40.853Z,88.91
2018-07-16T05:24:40.820Z,89.15
2018-07-16T05:25:40.785Z,88.95
2018-07-16T05:26:40.752Z,89.34
2018-07-16T05:27:40.727Z,88.85
2018-07-16T05:28:40.691Z,88.85
2018-07-16T05:29:40.659Z,89.43
2018-07-16T05:30:40.628Z,87.70
2018-07-16T05:31:40.612Z,85.53
2018-07-16T05:32:40.784Z,84.38
2018-07-16T05:33:40.529Z,86.01
2018-07-16T05:34:40.496Z,85.53
2018-07-16T05:35:40.471Z,84.47
2018-07-16T05:36:40.437Z,86.69
2018-07-16T05:37:40.404Z,87.74
2018-07-16T05:38:40.376Z,87.07
2018-07-16T05:39:40.338Z,87.84
2018-07-16T05:40:40.312Z,87.36
2018-07-16T05:41:40.279Z,87.07
2018-07-16T05:42:40.252Z,85.24
2018-07-16T05:43:40.213Z,84.22
2018-07-16T05:44:40.183Z,84.42
2018-07-16T05:45:40.153Z,82.49
2018-07-16T05:46:40.118Z,80.66
2018-07-16T05:47:40.096Z,79.98
2018-07-16T05:48:40.060Z,80.94
2018-07-16T05:49:40.029Z,82.39
2018-07-16T05:50:40.004Z,83.26
2018-07-16T05:51:39.962Z,81.04
2018-07-16T05:52:39.933Z,81.66
2018-07-16T05:53:39.901Z,81.66
2018-07-16T05:54:39.869Z,80.02
2018-07-16T05:55:39.848Z,77.03
2018-07-16T05:56:39.811Z,75.78
2018-07-16T05:57:39.777Z,76.07
2018-07-16T05:58:39.744Z,75.97
2018-07-16T05:59:39.718Z,76.45
2018-07-16T06:00:39.690Z,75.88
2018-07-16T06:01:39.655Z,75.20
2018-07-16T06:02:39.626Z,75.59
2018-07-16T06:03:39.589Z,75.82
2018-07-16T06:04:39.567Z,76.10
2018-07-16T06:05:39.539Z,76.01
2018-07-16T06:06:39.497Z,77.07
2018-07-16T06:07:39.473Z,75.53
2018-07-16T06:08:39.503Z,76.59
2018-07-16T06:09:39.411Z,78.81
2018-07-16T06:10:39.380Z,80.35
2018-07-16T06:11:39.343Z,81.93
2018-07-16T06:12:39.317Z,79.62
2018-07-16T06:13:39.286Z,78.94
2018-07-16T06:14:39.310Z,78.56
2018-07-16T06:15:39.221Z,78.08
2018-07-16T06:16:39.239Z,78.08
2018-07-16T06:17:39.162Z,77.59
2018-07-16T06:18:39.156Z,79.81
2018-07-16T06:19:39.105Z,80.39
2018-07-16T06:20:39.075Z,82.42
2018-07-16T06:21:39.043Z,82.65
2018-07-16T06:22:39.015Z,82.17
2018-07-16T06:23:38.979Z,81.49
2018-07-16T06:24:38.949Z,81.88
2018-07-16T06:25:38.919Z,82.07
2018-07-16T06:26:38.887Z,82.17
2018-07-16T06:27:38.863Z,81.59
2018-07-16T06:28:38.833Z,82.56
2018-07-16T06:29:38.799Z,82.56
2018-07-16T06:30:38.768Z,82.65
2018-07-16T06:31:38.743Z,82.46
2018-07-16T06:32:38.713Z,82.02
2018-07-16T06:33:38.681Z,80.47
2018-07-16T06:34:38.651Z,78.83
2018-07-16T06:35:38.616Z,78.25
2018-07-16T06:36:38.589Z,75.93
2018-07-16T06:37:38.559Z,76.03
2018-07-16T06:38:38.527Z,76.90
2018-07-16T06:39:38.568Z,71.88
2018-07-16T06:40:38.514Z,65.40
2018-07-16T06:41:38.441Z,65.53
2018-07-16T06:42:38.416Z,62.73
2018-07-16T06:43:38.378Z,60.50
2018-07-16T06:44:38.350Z,59.63
2018-07-16T06:45:38.323Z,60.41
2018-07-16T06:46:38.295Z,61.47
2018-07-16T06:47:38.286Z,62.53
2018-07-16T06:48:38.232Z,62.92
2018-07-16T06:49:38.202Z,64.18
2018-07-16T06:50:38.171Z,64.18
2018-07-16T06:51:38.148Z,62.53
2018-07-16T06:52:38.119Z,62.34
2018-07-16T06:53:38.089Z,62.24
2018-07-16T06:54:38.053Z,63.11
2018-07-16T06:55:38.030Z,63.11
2018-07-16T06:56:38.000Z,62.60
2018-07-16T06:57:37.969Z,63.47
2018-07-16T06:58:37.942Z,63.69
2018-07-16T06:59:37.907Z,63.50
2018-07-16T07:00:37.880Z,62.73
2018-07-16T07:01:37.855Z,64.27
2018-07-16T07:02:37.826Z,63.40
2018-07-16T07:03:37.793Z,64.18
2018-07-16T07:04:37.763Z,65.53
2018-07-16T07:05:37.735Z,65.24
2018-07-16T07:06:37.701Z,66.01
2018-07-16T07:07:37.679Z,65.34
2018-07-16T07:08:37.649Z,63.89
2018-07-16T07:09:37.620Z,64.18
2018-07-16T07:10:37.605Z,63.69
2018-07-16T07:11:37.557Z,62.15
2018-07-16T07:12:37.534Z,61.76
2018-07-16T07:13:37.502Z,61.08
2018-07-16T07:14:37.468Z,61.47
2018-07-16T07:15:37.453Z,60.82
2018-07-16T07:16:37.418Z,60.89
2018-07-16T07:17:37.386Z,60.79
2018-07-16T07:18:37.351Z,59.63
2018-07-16T07:19:37.329Z,60.02
2018-07-16T07:20:37.299Z,60.05
2018-07-16T07:21:37.272Z,61.30
2018-07-16T07:22:37.243Z,59.66
2018-07-16T07:23:37.207Z,58.80
2018-07-16T07:24:37.181Z,58.89
2018-07-16T07:25:37.240Z,60.44
2018-07-16T07:26:37.121Z,59.86
2018-07-16T07:27:37.097Z,60.05
2018-07-16T07:28:37.068Z,59.38
2018-07-16T07:29:37.038Z,59.56
2018-07-16T07:30:37.010Z,61.50
2018-07-16T07:31:36.976Z,61.40
2018-07-16T07:32:36.949Z,61.98
2018-07-16T07:33:36.922Z,61.60
2018-07-16T07:34:36.895Z,60.53
2018-07-16T07:35:36.880Z,60.82
2018-07-16T07:36:36.834Z,60.95
2018-07-16T07:37:36.803Z,59.18
2018-07-16T07:38:36.772Z,60.75
2018-07-16T07:39:36.751Z,59.86
2018-07-16T07:40:36.720Z,60.47
2018-07-16T07:41:36.692Z,60.53
2018-07-16T07:42:36.664Z,60.92
2018-07-16T07:43:36.630Z,60.82
2018-07-16T07:44:36.603Z,61.79
2018-07-16T07:45:36.576Z,62.08
2018-07-16T07:46:36.545Z,62.27
2018-07-16T07:47:36.544Z,62.47
2018-07-16T07:48:36.490Z,63.24
2018-07-16T07:49:36.457Z,61.40
2018-07-16T07:50:36.427Z,61.50
2018-07-16T07:51:36.405Z,62.21
2018-07-16T07:52:36.375Z,63.27
2018-07-16T07:53:36.345Z,62.11
2018-07-16T07:54:36.346Z,60.75
2018-07-16T07:55:36.294Z,60.95
2018-07-16T07:56:36.257Z,59.89
2018-07-16T07:57:36.229Z,60.75
2018-07-16T07:58:36.197Z,61.53
2018-07-16T07:59:36.176Z,59.89
2018-07-16T08:00:36.146Z,60.08
2018-07-16T08:01:36.116Z,59.91
2018-07-16T08:02:36.090Z,61.85
2018-07-16T08:03:36.057Z,59.63
2018-07-16T08:04:36.029Z,60.59
2018-07-16T08:05:36.001Z,59.23
2018-07-16T08:06:35.974Z,59.63
2018-07-16T08:07:35.940Z,59.33
2018-07-16T08:08:35.917Z,58.95
2018-07-16T08:09:35.886Z,60.62
2018-07-16T08:10:35.855Z,59.82
2018-07-16T08:11:35.832Z,58.47
2018-07-16T08:12:35.802Z,58.88
2018-07-16T08:13:35.778Z,58.75
2018-07-16T08:14:35.746Z,58.95
2018-07-16T08:15:35.712Z,58.17
2018-07-16T08:16:35.686Z,58.47
2018-07-16T08:17:35.656Z,58.47
2018-07-16T08:18:35.626Z,58.49
2018-07-16T08:19:35.606Z,59.75
2018-07-16T08:20:35.578Z,59.66
2018-07-16T08:21:35.543Z,57.91
2018-07-16T08:22:35.514Z,58.01
2018-07-16T08:23:35.491Z,58.20
2018-07-16T08:24:35.460Z,56.36
2018-07-16T08:25:35.430Z,56.07
2018-07-16T08:26:35.407Z,57.14
2018-07-16T08:27:35.371Z,57.43
2018-07-16T08:28:35.345Z,57.33
2018-07-16T08:29:35.316Z,58.14
2018-07-16T08:30:35.315Z,56.26
2018-07-16T08:31:35.265Z,57.43
2018-07-16T08:32:35.234Z,57.33
2018-07-16T08:33:35.232Z,57.43
2018-07-16T08:34:35.183Z,56.85
2018-07-16T08:35:35.145Z,57.43
2018-07-16T08:36:35.120Z,58.42
2018-07-16T08:37:35.121Z,56.68
2018-07-16T08:38:35.071Z,55.13
2018-07-16T08:39:35.031Z,56.59
2018-07-16T08:40:35.006Z,55.13
2018-07-16T08:41:34.977Z,54.16
2018-07-16T08:42:34.948Z,53.87
2018-07-16T08:43:34.923Z,55.13
2018-07-16T08:44:34.894Z,55.71
2018-07-16T08:45:34.868Z,55.22
2018-07-16T08:46:34.838Z,55.20
2018-07-16T08:47:34.806Z,56.10
2018-07-16T08:48:34.779Z,56.87
2018-07-16T08:49:34.751Z,56.20
2018-07-16T08:50:34.724Z,54.26
2018-07-16T08:51:34.697Z,55.10
2018-07-16T08:52:34.730Z,56.20
2018-07-16T08:53:34.641Z,55.62
2018-07-16T08:54:34.607Z,54.74
2018-07-16T08:55:34.588Z,54.58
2018-07-16T08:56:34.554Z,54.58
2018-07-16T08:57:34.527Z,53.70
2018-07-16T08:58:34.501Z,51.93
2018-07-16T08:59:34.467Z,51.84
2018-07-16T09:00:34.444Z,52.90
2018-07-16T09:01:34.411Z,54.16
2018-07-16T09:02:34.382Z,53.67
2018-07-16T09:03:34.359Z,54.06
2018-07-16T09:04:34.334Z,53.97
2018-07-16T09:05:34.301Z,52.73
2018-07-16T09:06:34.275Z,53.22
2018-07-16T09:07:34.240Z,51.47
2018-07-16T09:08:34.214Z,50.99
2018-07-16T09:09:34.187Z,50.89
2018-07-16T09:10:34.164Z,51.76
2018-07-16T09:11:34.128Z,50.70
2018-07-16T09:12:34.103Z,50.60
2018-07-16T09:13:34.148Z,50.50
2018-07-16T09:14:34.045Z,50.70
2018-07-16T09:15:34.022Z,51.28
2018-07-16T09:16:33.996Z,49.34
2018-07-16T09:17:33.971Z,50.02
2018-07-16T09:18:33.940Z,48.08
2018-07-16T09:19:33.907Z,48.76
2018-07-16T09:20:33.879Z,51.76
2018-07-16T09:21:33.848Z,51.18
2018-07-16T09:22:33.820Z,52.15
2018-07-16T09:23:33.797Z,52.25
2018-07-16T09:24:33.767Z,51.40
2018-07-16T09:25:33.815Z,51.69
2018-07-16T09:26:33.709Z,50.43
2018-07-16T09:27:33.686Z,50.99
2018-07-16T09:28:33.657Z,50.12
2018-07-16T09:29:33.628Z,50.50
2018-07-16T09:30:33.604Z,47.98
2018-07-16T09:31:33.568Z,47.03
2018-07-16T09:32:33.546Z,47.60
2018-07-16T09:33:33.514Z,47.69
2018-07-16T09:34:33.483Z,46.33
2018-07-16T09:35:33.462Z,45.07
2018-07-16T09:36:33.432Z,44.42
2018-07-16T09:37:33.404Z,44.68
2018-07-16T09:38:33.378Z,45.17
2018-07-16T09:39:33.345Z,45.07
2018-07-16T09:40:33.318Z,46.04
2018-07-16T09:41:33.294Z,46.55
2018-07-16T09:42:33.268Z,46.36
2018-07-16T09:43:33.233Z,45.68
2018-07-16T09:44:33.246Z,44.51
2018-07-16T09:45:33.180Z,43.93
2018-07-16T09:46:33.148Z,45.00
2018-07-16T09:47:33.126Z,46.36
2018-07-16T09:48:33.098Z,46.07
2018-07-16T09:49:33.069Z,47.33
2018-07-16T09:50:33.043Z,48.00
2018-07-16T09:51:33.010Z,47.91
2018-07-16T09:52:32.984Z,46.45
2018-07-16T09:53:32.957Z,46.94
2018-07-16T09:54:32.928Z,45.97
2018-07-16T09:55:32.906Z,43.84
2018-07-16T09:56:32.946Z,42.86
2018-07-16T09:57:32.847Z,42.67
2018-07-16T09:58:32.814Z,41.22
2018-07-16T09:59:32.793Z,40.56
2018-07-16T10:00:32.765Z,42.30
2018-07-16T10:01:32.742Z,42.96
2018-07-16T10:02:32.712Z,43.84
2018-07-16T10:03:32.677Z,44.51
2018-07-16T10:04:32.653Z,44.42
2018-07-16T10:05:32.623Z,43.45
2018-07-16T10:06:32.595Z,43.64
2018-07-16T10:07:32.573Z,43.84
2018-07-16T10:21:15.853Z,44.37
2018-07-16T10:22:15.787Z,43.88
2018-07-16T10:23:15.759Z,43.68
2018-07-16T10:24:15.725Z,43.76
2018-07-16T10:25:15.695Z,42.50
2018-07-16T10:26:15.660Z,42.43
2018-07-16T10:27:15.629Z,41.84
2018-07-16T10:28:15.602Z,41.36
2018-07-16T10:29:15.571Z,40.29
2018-07-16T10:30:15.541Z,40.29
2018-07-16T10:31:15.513Z,40.67
2018-07-16T10:32:15.481Z,42.03
2018-07-16T10:33:15.454Z,42.43
2018-07-16T10:34:15.422Z,43.59
2018-07-16T10:35:15.391Z,43.49
2018-07-16T10:36:15.369Z,43.78
2018-07-16T10:37:15.339Z,42.61
2018-07-16T10:38:15.311Z,42.33
2018-07-16T10:39:15.285Z,43.12
2018-07-16T10:40:15.249Z,42.52
2018-07-16T10:41:15.223Z,41.28
2018-07-16T10:42:15.198Z,40.29
2018-07-16T10:43:15.172Z,39.80
2018-07-16T10:44:15.136Z,39.70
2018-07-16T10:45:15.115Z,40.48
2018-07-16T10:46:15.083Z,40.77
2018-07-16T10:47:15.056Z,40.21
2018-07-16T10:48:15.031Z,42.05
2018-07-16T10:49:15.003Z,42.25
2018-07-16T10:50:14.980Z,41.38
2018-07-16T10:51:14.953Z,41.96
2018-07-16T10:52:14.914Z,40.79
2018-07-16T10:53:14.888Z,40.79
2018-07-16T10:54:14.864Z,41.38
2018-07-16T10:55:14.890Z,42.74
2018-07-16T10:56:14.809Z,42.35
2018-07-16T10:57:14.784Z,39.14
2018-07-16T10:58:14.750Z,39.04
2018-07-16T10:59:14.721Z,39.43
2018-07-16T11:00:14.698Z,37.98
2018-07-16T11:01:14.671Z,37.49
2018-07-16T11:02:14.641Z,39.16
2018-07-16T11:03:14.623Z,39.65
2018-07-16T11:04:14.583Z,39.16
2018-07-16T11:05:14.578Z,40.23
2018-07-16T11:06:14.529Z,41.20
2018-07-16T11:07:14.502Z,40.72
2018-07-16T11:08:14.479Z,40.23
2018-07-16T11:09:14.458Z,39.65
2018-07-16T11:10:14.421Z,39.55
2018-07-16T11:11:14.396Z,40.42
2018-07-16T11:12:14.364Z,39.84
2018-07-16T11:13:14.337Z,40.15
2018-07-16T11:14:14.312Z,39.08
2018-07-16T11:15:14.288Z,37.70
2018-07-16T11:16:14.254Z,38.31
2018-07-16T11:17:14.232Z,37.82
2018-07-16T11:18:14.203Z,36.75
2018-07-16T11:19:14.172Z,35.78
2018-07-16T11:20:14.154Z,35.58
2018-07-16T11:21:14.122Z,36.07
2018-07-16T11:22:14.095Z,36.94
2018-07-16T11:23:14.071Z,36.46
2018-07-16T11:24:14.037Z,37.12
2018-07-16T11:25:14.012Z,38.67
2018-07-16T11:26:13.984Z,38.19
2018-07-16T11:27:13.955Z,38.96
2018-07-16T11:28:13.934Z,39.26
2018-07-16T11:29:13.908Z,38.79
2018-07-16T11:30:13.877Z,37.82
2018-07-16T11:31:13.848Z,35.78
2018-07-16T11:32:13.827Z,34.22
2018-07-16T11:33:13.799Z,36.65
2018-07-16T11:34:13.769Z,35.99
2018-07-16T11:35:13.746Z,35.60
2018-07-16T11:36:13.713Z,36.38
2018-07-16T11:37:13.687Z,36.28
2018-07-16T11:38:13.661Z,36.26
2018-07-16T11:39:13.632Z,35.97
2018-07-16T11:40:13.610Z,35.97
2018-07-16T11:41:13.582Z,35.78
2018-07-16T11:42:13.556Z,35.39
2018-07-16T11:43:13.529Z,36.36
2018-07-16T11:44:13.499Z,36.28
2018-07-16T11:45:13.472Z,36.28
2018-07-16T11:46:13.530Z,35.11
2018-07-16T11:47:13.421Z,35.11
2018-07-16T11:48:13.390Z,34.24
2018-07-16T11:49:13.364Z,34.05
2018-07-16T11:50:13.337Z,34.32
2018-07-16T11:51:13.308Z,34.61
2018-07-16T11:52:13.362Z,34.61
2018-07-16T11:53:13.259Z,36.26
2018-07-16T11:54:13.230Z,35.88
2018-07-16T11:55:13.204Z,35.49
2018-07-16T11:56:13.173Z,34.53
2018-07-16T11:57:13.150Z,33.17
2018-07-16T11:58:13.122Z,33.95
2018-07-16T11:59:13.107Z,34.05
2018-07-16T12:00:13.073Z,34.05
2018-07-16T12:01:13.044Z,33.46
2018-07-16T12:02:13.015Z,35.42
2018-07-16T12:03:12.984Z,34.94
2018-07-16T12:04:12.965Z,34.06
2018-07-16T12:05:12.950Z,32.31
2018-07-16T12:06:12.909Z,30.75
2018-07-16T12:07:12.885Z,31.74
2018-07-16T12:08:12.852Z,31.25
2018-07-16T12:09:12.830Z,30.94
2018-07-16T12:10:12.802Z,31.53
2018-07-16T12:11:12.772Z,30.93
2018-07-16T12:12:12.782Z,31.41
2018-07-16T12:13:12.724Z,31.32
2018-07-16T12:14:12.696Z,31.43
2018-07-16T12:15:12.672Z,30.93
2018-07-16T12:16:12.640Z,31.13
2018-07-16T12:17:12.616Z,32.10
2018-07-16T12:18:12.590Z,32.21
2018-07-16T12:19:12.568Z,32.21
2018-07-16T12:20:12.533Z,32.89
2018-07-16T12:21:12.509Z,33.18
2018-07-16T12:22:12.482Z,31.53
2018-07-16T12:23:12.454Z,32.21
2018-07-16T12:24:12.435Z,31.32
2018-07-16T12:25:12.407Z,31.82
2018-07-16T12:26:12.378Z,31.73
2018-07-16T12:27:12.354Z,32.40
2018-07-16T12:28:12.322Z,33.18
2018-07-16T12:29:12.297Z,33.96
2018-07-16T12:30:12.271Z,32.60
2018-07-16T12:31:12.245Z,32.29
2018-07-16T12:32:12.221Z,32.79
2018-07-16T12:33:12.194Z,31.81
2018-07-16T12:34:12.165Z,32.10
2018-07-16T12:35:12.136Z,32.40
2018-07-16T12:36:12.116Z,32.21
2018-07-16T12:37:12.091Z,32.00
2018-07-16T12:38:12.061Z,31.81
2018-07-16T12:39:12.039Z,31.03
2018-07-16T12:40:12.004Z,31.14
2018-07-16T12:41:11.983Z,30.94
2018-07-16T12:42:11.953Z,30.83
2018-07-16T12:43:11.925Z,31.41
2018-07-16T12:44:11.913Z,31.04
2018-07-16T12:45:11.878Z,31.24
2018-07-16T12:46:11.850Z,30.93
2018-07-16T12:47:11.824Z,30.74
2018-07-16T12:48:11.817Z,31.41
2018-07-16T12:49:11.769Z,32.40
2018-07-16T12:50:11.743Z,31.43
2018-07-16T12:51:11.720Z,30.85
2018-07-16T12:52:11.688Z,30.85
2018-07-16T12:53:11.668Z,31.04
2018-07-16T12:54:11.638Z,31.34
2018-07-16T12:55:11.607Z,31.14
2018-07-16T12:56:11.589Z,31.43
2018-07-16T12:57:11.570Z,31.14
2018-07-16T12:58:11.531Z,30.96
2018-07-16T12:59:11.508Z,31.35
2018-07-16T13:00:11.476Z,30.77
2018-07-16T13:01:11.451Z,31.54
2018-07-16T13:02:11.425Z,30.85
2018-07-16T13:03:11.397Z,30.46
2018-07-16T13:04:11.376Z,30.75
2018-07-16T13:05:11.347Z,30.85
2018-07-16T13:06:11.402Z,31.22
2018-07-16T13:07:11.290Z,30.93
2018-07-16T13:08:11.269Z,30.83
2018-07-16T13:09:11.243Z,30.83
2018-07-16T13:10:11.217Z,30.94
2018-07-16T13:11:11.191Z,30.93
2018-07-16T13:12:11.160Z,31.13
2018-07-16T13:13:11.135Z,31.92
2018-07-16T13:14:11.108Z,31.93
2018-07-16T13:15:11.080Z,30.87
2018-07-16T13:16:11.064Z,29.30
2018-07-16T13:17:11.031Z,29.69
2018-07-16T13:18:11.004Z,29.30
2018-07-16T13:19:10.981Z,29.40
2018-07-16T13:20:10.950Z,29.68
2018-07-16T13:21:10.924Z,30.28